Time;durP1;ratioP1;P1;durP2;ratioP2;P2;SDS_P1;SDS_P2;PMS_P1;PMS_P2;Temp;Humidity;BMP_temperature;BMP_pressure;BME280_temperature;BME280_humidity;BME280_pressure;Samples;Min_cycle;Max_cycle;Signal;HPM_P1;HPM_P2
2021/01/12 00:00:08;;;;;;;24.60;13.77;;;;;;;-1.66;83.69;96314.75;5098527;28;20505;-86
2021/01/12 00:02:35;;;;;;;27.83;14.23;;;;;;;-1.65;83.52;96302.97;5084906;28;20523;-86
2021/01/12 00:05:01;;;;;;;28.80;15.83;;;;;;;-1.52;82.64;96310.59;5074484;28;20446;-85
2021/01/12 00:07:28;;;;;;;30.63;15.90;;;;;;;-1.42;82.06;96304.72;5074105;28;20465;-85
2021/01/12 00:09:54;;;;;;;32.80;15.63;;;;;;;-1.48;82.34;96306.56;5074206;28;20449;-86
2021/01/12 00:12:20;;;;;;;29.50;16.53;;;;;;;-1.49;82.82;96305.09;5074503;28;20442;-85
2021/01/12 00:14:48;;;;;;;29.27;15.63;;;;;;;-1.52;82.56;96303.38;5074303;28;20476;-85
2021/01/12 00:17:15;;;;;;;28.00;16.10;;;;;;;-1.47;82.41;96300.06;5075942;28;20444;-85
2021/01/12 00:19:41;;;;;;;28.60;15.97;;;;;;;-1.46;82.89;96290.94;5076164;28;20433;-86
2021/01/12 00:22:14;;;;;;;27.03;14.80;;;;;;;-1.39;81.34;96284.53;5076187;28;20489;-85
2021/01/12 00:24:40;;;;;;;26.67;14.77;;;;;;;-1.32;81.14;96276.97;5077684;28;20462;-84
2021/01/12 00:27:07;;;;;;;27.63;15.67;;;;;;;-1.36;81.27;96275.69;5094701;28;20475;-85
2021/01/12 00:29:33;;;;;;;25.77;14.57;;;;;;;-1.29;80.93;96272.66;5075988;28;20440;-85
2021/01/12 00:32:01;;;;;;;30.30;15.90;;;;;;;-1.42;81.05;96267.69;5074160;28;20532;-86
2021/01/12 00:34:27;;;;;;;27.70;15.00;;;;;;;-1.48;81.32;96269.53;5074270;28;20540;-86
2021/01/12 00:36:53;;;;;;;33.90;15.00;;;;;;;-1.53;81.82;96262.25;5084120;28;20422;-86
2021/01/12 00:39:21;;;;;;;32.33;15.20;;;;;;;-1.56;82.08;96257.16;5095894;28;20409;-85
2021/01/12 00:41:49;;;;;;;29.97;15.93;;;;;;;-1.58;82.53;96251.59;5079442;28;20485;-85
2021/01/12 00:44:15;;;;;;;36.33;17.57;;;;;;;-1.45;81.50;96230.84;5075560;28;20450;-85
2021/01/12 00:46:44;;;;;;;29.60;15.60;;;;;;;-1.52;81.75;96228.59;5078043;28;20430;-85
2021/01/12 00:49:11;;;;;;;24.80;14.27;;;;;;;-1.53;81.24;96230.50;5078121;28;20437;-86
2021/01/12 00:51:39;;;;;;;34.33;16.57;;;;;;;-1.53;81.66;96230.50;5077843;28;20452;-85
2021/01/12 00:54:06;;;;;;;29.97;17.03;;;;;;;-1.58;82.21;96225.16;5077623;28;20473;-85
2021/01/12 00:56:33;;;;;;;31.37;15.20;;;;;;;-1.55;82.02;96211.72;5077684;28;20568;-86
2021/01/12 00:59:00;;;;;;;26.37;15.90;;;;;;;-1.55;81.90;96217.03;5077811;28;20468;-85
2021/01/12 01:01:26;;;;;;;31.47;14.90;;;;;;;-1.48;81.64;96213.25;5077444;28;20517;-85
2021/01/12 01:03:53;;;;;;;22.87;14.13;;;;;;;-1.38;81.32;96215.28;5077189;28;20447;-85
2021/01/12 01:06:24;;;;;;;29.17;14.67;;;;;;;-1.50;81.60;96223.56;5077773;28;20437;-85
2021/01/12 01:08:51;;;;;;;33.83;15.20;;;;;;;-1.47;82.17;96212.78;5080396;28;20422;-86
2021/01/12 01:11:17;;;;;;;30.50;17.17;;;;;;;-1.43;81.77;96221.25;5076943;28;20437;-85
2021/01/12 01:13:44;;;;;;;27.33;15.90;;;;;;;-1.35;81.79;96222.31;5077182;28;20468;-85
2021/01/12 01:16:10;;;;;;;29.47;15.30;;;;;;;-1.20;81.55;96224.88;5077515;28;20444;-85
2021/01/12 01:18:37;;;;;;;27.90;14.60;;;;;;;-1.18;81.64;96228.50;5077581;28;20441;-85
2021/01/12 01:21:04;;;;;;;25.93;12.50;;;;;;;-1.14;81.22;96223.03;5077297;28;20829;-86
2021/01/12 01:23:31;;;;;;;21.70;12.43;;;;;;;-1.10;81.24;96228.84;5077512;28;20456;-85
2021/01/12 01:25:57;;;;;;;21.13;12.17;;;;;;;-1.08;80.63;96227.19;5077301;28;20973;-85
2021/01/12 01:28:25;;;;;;;24.90;13.47;;;;;;;-1.01;80.77;96220.75;5077274;28;20456;-85
2021/01/12 01:30:54;;;;;;;23.53;12.30;;;;;;;-0.99;80.64;96230.84;5077121;28;20436;-86
2021/01/12 01:33:21;;;;;;;21.10;12.80;;;;;;;-1.01;81.21;96233.25;5077269;28;20445;-86
2021/01/12 01:35:48;;;;;;;28.00;14.33;;;;;;;-0.99;81.12;96223.66;5076661;28;20465;-86
2021/01/12 01:38:15;;;;;;;25.30;13.40;;;;;;;-0.89;81.19;96232.19;5077135;28;20493;-86
2021/01/12 01:40:42;;;;;;;24.07;13.63;;;;;;;-0.87;80.99;96232.44;5077533;28;20609;-85
2021/01/12 01:43:14;;;;;;;21.87;11.90;;;;;;;-0.82;80.79;96237.06;5076424;28;20491;-85
2021/01/12 01:45:41;;;;;;;21.93;11.87;;;;;;;-0.80;81.56;96245.25;5076279;28;20988;-85
2021/01/12 01:48:08;;;;;;;22.50;12.60;;;;;;;-0.73;81.17;96232.34;5076481;28;20429;-85
2021/01/12 01:50:35;;;;;;;22.60;12.70;;;;;;;-0.70;81.53;96226.09;5077180;28;20458;-86
2021/01/12 01:53:01;;;;;;;22.00;13.33;;;;;;;-0.59;80.75;96217.50;5076724;28;20799;-85
2021/01/12 01:55:28;;;;;;;24.07;12.77;;;;;;;-0.65;81.12;96216.75;5075861;28;21035;-85
2021/01/12 01:57:55;;;;;;;22.57;12.83;;;;;;;-0.65;81.32;96222.78;5076330;28;20429;-85
2021/01/12 02:00:22;;;;;;;23.40;11.87;;;;;;;-0.67;81.60;96219.88;5076722;28;20513;-85
2021/01/12 02:02:55;;;;;;;25.27;13.67;;;;;;;-0.60;81.69;96216.09;5076567;28;20507;-85
2021/01/12 02:05:28;;;;;;;22.80;12.50;;;;;;;-0.60;81.49;96202.84;5076842;28;20484;-84
2021/01/12 02:07:58;;;;;;;20.60;11.60;;;;;;;-0.60;81.65;96200.19;5076234;28;20473;-85
2021/01/12 02:10:26;;;;;;;18.70;11.10;;;;;;;-0.57;81.34;96199.25;5076537;28;20834;-85
2021/01/12 02:12:59;;;;;;;28.20;10.97;;;;;;;-0.59;81.53;96196.31;5076350;28;20460;-84
2021/01/12 02:15:26;;;;;;;23.60;11.67;;;;;;;-0.55;81.71;96196.84;5076397;28;20511;-84
2021/01/12 02:17:53;;;;;;;21.90;11.10;;;;;;;-0.58;81.77;96184.53;5076216;28;20441;-85
2021/01/12 02:20:22;;;;;;;17.67;9.83;;;;;;;-0.59;81.60;96177.78;5076733;28;20445;-85
2021/01/12 02:23:06;;;;;;;17.20;10.50;;;;;;;-0.59;82.46;96173.22;5076067;28;20576;-85
2021/01/12 02:25:35;;;;;;;19.07;9.77;;;;;;;-0.56;82.04;96163.59;5076477;28;20560;-85
2021/01/12 02:28:03;;;;;;;19.60;10.90;;;;;;;-0.58;82.55;96158.03;5076401;28;20474;-85
2021/01/12 02:30:30;;;;;;;17.50;9.93;;;;;;;-0.54;82.64;96150.63;5076123;28;20522;-85
2021/01/12 02:32:56;;;;;;;18.13;9.70;;;;;;;-0.46;82.32;96164.16;5076383;28;20437;-85
2021/01/12 02:35:26;;;;;;;16.37;9.67;;;;;;;-0.49;82.57;96147.28;5075664;28;20472;-84
2021/01/12 02:37:55;;;;;;;17.10;10.67;;;;;;;-0.49;82.66;96131.38;5075958;28;20520;-84
2021/01/12 02:40:21;;;;;;;17.20;9.57;;;;;;;-0.48;82.79;96132.09;5075683;28;20624;-85
2021/01/12 02:42:49;;;;;;;14.77;9.63;;;;;;;-0.41;82.55;96127.09;5075504;28;20489;-85
2021/01/12 02:45:16;;;;;;;14.90;9.10;;;;;;;-0.35;82.59;96119.19;5075454;28;20446;-85
2021/01/12 02:47:43;;;;;;;17.00;9.50;;;;;;;-0.38;82.31;96128.81;5075450;28;20441;-85
2021/01/12 02:50:12;;;;;;;21.63;10.00;;;;;;;-0.42;83.05;96120.34;5074870;28;20418;-85
2021/01/12 02:52:39;;;;;;;16.13;8.47;;;;;;;-0.39;82.52;96116.75;5075184;28;20930;-85
2021/01/12 02:55:08;;;;;;;19.63;9.40;;;;;;;-0.40;82.38;96104.69;5075423;28;21025;-85
2021/01/12 02:57:34;;;;;;;20.10;10.50;;;;;;;-0.34;82.27;96099.41;5075449;28;20495;-84
2021/01/12 03:00:02;;;;;;;15.50;7.90;;;;;;;-0.27;81.85;96098.97;5075079;28;20438;-85
2021/01/12 03:02:29;;;;;;;15.80;8.57;;;;;;;-0.27;81.78;96093.69;5074642;28;20492;-85
2021/01/12 03:04:55;;;;;;;15.40;8.10;;;;;;;-0.19;81.39;96089.41;5074709;28;20451;-84
2021/01/12 03:07:21;;;;;;;13.90;7.90;;;;;;;-0.24;81.38;96090.81;5074517;28;20938;-84
2021/01/12 03:09:48;;;;;;;16.20;8.13;;;;;;;-0.28;81.80;96094.91;5075118;28;20566;-85
2021/01/12 03:12:14;;;;;;;15.70;8.07;;;;;;;-0.26;81.49;96101.16;5075338;28;20465;-84
2021/01/12 03:14:41;;;;;;;13.47;8.17;;;;;;;-0.16;81.47;96088.44;5075278;28;20465;-84
2021/01/12 03:17:10;;;;;;;15.33;7.67;;;;;;;-0.12;81.89;96081.72;5076575;28;20438;-84
2021/01/12 03:19:36;;;;;;;18.30;8.90;;;;;;;0.00;81.28;96085.16;5077372;28;20438;-84
2021/01/12 03:22:03;;;;;;;16.43;7.27;;;;;;;-0.03;81.01;96081.50;5076702;28;20844;-83
2021/01/12 03:24:29;;;;;;;15.03;7.33;;;;;;;-0.07;81.34;96070.41;5089182;28;20441;-84
2021/01/12 03:26:55;;;;;;;20.73;7.60;;;;;;;0.06;80.95;96066.59;5098795;28;20429;-86
2021/01/12 03:29:56;;;;;;;15.20;8.10;;;;;;;0.03;80.75;96072.84;5099004;28;20438;-87
2021/01/12 03:32:23;;;;;;;12.60;7.10;;;;;;;0.11;80.51;96068.53;5098563;28;20482;-85
2021/01/12 03:34:49;;;;;;;11.43;6.47;;;;;;;0.08;80.78;96064.91;5098633;28;20464;-86
2021/01/12 03:37:16;;;;;;;12.73;7.93;;;;;;;0.15;80.82;96058.44;5098505;28;20417;-84
2021/01/12 03:39:42;;;;;;;15.33;8.30;;;;;;;0.11;81.14;96053.34;5097890;28;20443;-85
2021/01/12 03:42:09;;;;;;;11.97;7.17;;;;;;;0.13;81.07;96047.56;5097765;28;20495;-85
2021/01/12 03:44:35;;;;;;;16.00;6.90;;;;;;;0.17;80.97;96032.16;5097646;28;20476;-85
2021/01/12 03:47:02;;;;;;;11.77;6.93;;;;;;;0.20;81.06;96028.53;5093443;28;20454;-84
2021/01/12 03:49:29;;;;;;;10.97;6.27;;;;;;;0.20;81.39;96017.94;5079688;28;20964;-84
2021/01/12 03:51:55;;;;;;;11.27;7.00;;;;;;;0.25;81.28;96011.94;5076708;28;20933;-84
2021/01/12 03:54:22;;;;;;;13.13;7.13;;;;;;;0.15;82.34;96008.78;5076289;28;20627;-83
2021/01/12 03:56:48;;;;;;;11.30;6.90;;;;;;;0.24;82.17;96007.81;5074968;28;20486;-84
2021/01/12 03:59:15;;;;;;;10.67;5.90;;;;;;;0.28;81.38;96000.34;5074818;28;20445;-84
2021/01/12 04:01:42;;;;;;;12.63;6.73;;;;;;;0.25;81.73;95996.72;5074974;28;20852;-85
2021/01/12 04:04:09;;;;;;;9.47;5.93;;;;;;;0.20;81.96;95986.81;5075701;28;20511;-84
2021/01/12 04:06:36;;;;;;;11.17;6.40;;;;;;;0.19;82.64;95989.97;5074521;28;20414;-84
2021/01/12 04:09:04;;;;;;;12.40;6.63;;;;;;;0.22;82.91;95983.72;5074625;28;20528;-84
2021/01/12 04:11:34;;;;;;;11.23;7.00;;;;;;;0.27;82.74;95980.31;5075218;28;20537;-84
2021/01/12 04:14:01;;;;;;;11.40;6.23;;;;;;;0.33;82.85;95978.41;5074995;28;20509;-85
2021/01/12 04:16:27;;;;;;;11.13;6.83;;;;;;;0.29;83.18;95975.25;5075360;28;20528;-84
2021/01/12 04:18:54;;;;;;;10.67;5.50;;;;;;;0.35;83.52;95973.34;5078038;28;20436;-84
2021/01/12 04:21:20;;;;;;;12.50;6.70;;;;;;;0.43;82.68;95971.66;5080130;28;20583;-84
2021/01/12 04:23:47;;;;;;;9.77;6.40;;;;;;;0.49;83.21;95965.16;5082843;28;20814;-83
2021/01/12 04:26:13;;;;;;;9.73;5.93;;;;;;;0.54;83.05;95958.38;5079875;28;20483;-83
2021/01/12 04:28:40;;;;;;;10.23;5.63;;;;;;;0.51;83.25;95949.47;5080045;28;20452;-85
2021/01/12 04:31:06;;;;;;;13.63;7.60;;;;;;;0.47;83.90;95948.97;5095603;28;20469;-83
2021/01/12 04:33:32;;;;;;;9.97;6.47;;;;;;;0.56;83.85;95940.06;5078939;28;20471;-83
2021/01/12 04:35:59;;;;;;;12.97;6.53;;;;;;;0.67;83.02;95942.69;5078209;28;20469;-84
2021/01/12 04:38:25;;;;;;;12.43;7.07;;;;;;;0.57;83.58;95944.16;5078485;28;20447;-84
2021/01/12 04:40:52;;;;;;;9.00;5.67;;;;;;;0.55;83.49;95935.97;5078053;28;20441;-85
2021/01/12 04:43:19;;;;;;;13.27;6.60;;;;;;;0.56;83.24;95932.09;5078121;28;20487;-84
2021/01/12 04:45:45;;;;;;;9.67;7.07;;;;;;;0.51;84.05;95927.50;5077425;28;20467;-84
2021/01/12 04:48:12;;;;;;;11.27;5.90;;;;;;;0.53;83.81;95923.16;5077796;28;20445;-84
2021/01/12 04:50:39;;;;;;;13.30;7.00;;;;;;;0.53;83.91;95917.84;5077663;28;20523;-84
2021/01/12 04:53:05;;;;;;;11.37;6.53;;;;;;;0.50;83.80;95908.22;5078468;28;20437;-84
2021/01/12 04:55:31;;;;;;;14.23;7.90;;;;;;;0.50;83.74;95902.91;5077321;28;20548;-85
2021/01/12 04:57:58;;;;;;;10.70;6.17;;;;;;;0.47;84.17;95903.88;5077637;28;20441;-83
2021/01/12 05:00:28;;;;;;;11.57;7.03;;;;;;;0.51;83.67;95898.31;5077386;28;20441;-84
2021/01/12 05:03:01;;;;;;;15.30;7.50;;;;;;;0.50;84.07;95902.19;5077307;28;20528;-85
2021/01/12 05:05:28;;;;;;;10.00;6.10;;;;;;;0.48;84.16;95894.72;5077215;28;20525;-85
2021/01/12 05:07:59;;;;;;;13.33;7.07;;;;;;;0.41;84.20;95889.88;5077528;28;20445;-85
2021/01/12 05:10:26;;;;;;;11.37;6.77;;;;;;;0.38;84.34;95890.84;5077371;28;20430;-85
2021/01/12 05:12:53;;;;;;;12.50;7.63;;;;;;;0.41;84.61;95889.16;5077381;28;20455;-84
2021/01/12 05:15:21;;;;;;;12.60;7.70;;;;;;;0.43;83.97;95892.06;5078205;28;20470;-86
2021/01/12 05:17:49;;;;;;;14.77;7.30;;;;;;;0.40;84.38;95887.72;5077798;28;20429;-84
2021/01/12 05:20:23;;;;;;;12.17;7.70;;;;;;;0.35;84.83;95881.19;5077181;28;20452;-85
2021/01/12 05:22:57;;;;;;;13.80;7.60;;;;;;;0.29;84.61;95888.44;5077058;28;20472;-85
2021/01/12 05:25:33;;;;;;;11.90;7.13;;;;;;;0.31;85.23;95890.63;5077041;28;20465;-85
2021/01/12 05:28:01;;;;;;;13.77;8.13;;;;;;;0.37;84.98;95897.38;5077459;28;20849;-85
2021/01/12 05:30:29;;;;;;;15.03;7.17;;;;;;;0.31;85.84;95890.63;5076098;28;20441;-85
2021/01/12 05:32:57;;;;;;;11.60;6.93;;;;;;;0.38;85.75;95890.13;5076571;28;20429;-86
2021/01/12 05:35:29;;;;;;;17.87;9.20;;;;;;;0.42;85.70;95891.34;5076563;28;20523;-85
2021/01/12 05:38:03;;;;;;;15.50;8.20;;;;;;;0.34;85.65;95885.09;5077227;28;20418;-86
2021/01/12 05:40:33;;;;;;;16.10;9.27;;;;;;;0.41;86.14;95889.88;5077282;28;20441;-85
2021/01/12 05:43:07;;;;;;;16.20;7.47;;;;;;;0.38;86.12;95887.47;5076773;28;20575;-86
2021/01/12 05:45:36;;;;;;;13.17;7.67;;;;;;;0.38;86.46;95887.47;5077232;28;20456;-86
2021/01/12 05:48:03;;;;;;;15.17;7.90;;;;;;;0.49;86.51;95879.50;5077750;28;20453;-86
2021/01/12 05:50:30;;;;;;;13.83;7.80;;;;;;;0.45;87.12;95884.34;5076835;28;20449;-85
2021/01/12 05:53:03;;;;;;;16.47;7.10;;;;;;;0.47;87.16;95885.28;5076612;28;20499;-85
2021/01/12 05:55:35;;;;;;;12.60;6.70;;;;;;;0.54;87.53;95884.81;5076539;28;20469;-85
2021/01/12 05:58:11;;;;;;;11.93;6.47;;;;;;;0.62;87.44;95877.09;5077154;28;20483;-85
2021/01/12 06:00:42;;;;;;;10.90;7.10;;;;;;;0.65;87.11;95873.47;5077343;28;20449;-85
2021/01/12 06:03:13;;;;;;;11.77;7.07;;;;;;;0.67;87.63;95868.38;5076862;28;20553;-85
2021/01/12 06:05:41;;;;;;;10.17;6.60;;;;;;;0.65;87.89;95860.19;5077219;28;20518;-85
2021/01/12 06:08:07;;;;;;;11.87;6.60;;;;;;;0.79;88.13;95859.19;5077586;28;20812;-85
2021/01/12 06:10:39;;;;;;;11.10;6.73;;;;;;;0.77;89.03;95851.00;5077270;28;20957;-85
2021/01/12 06:13:12;;;;;;;10.37;5.63;;;;;;;0.86;89.06;95856.03;5076767;28;20450;-85
2021/01/12 06:15:42;;;;;;;10.73;5.50;;;;;;;0.92;89.03;95846.09;5076710;28;20454;-85
2021/01/12 06:18:12;;;;;;;12.00;6.00;;;;;;;0.97;88.53;95852.63;5076568;28;20972;-84
2021/01/12 06:21:13;;;;;;;16.60;5.70;;;;;;;0.94;89.05;95850.94;5077563;28;20429;-84
2021/01/12 06:23:45;;;;;;;8.13;5.37;;;;;;;0.96;88.42;95851.91;5077672;28;20543;-85
2021/01/12 06:26:13;;;;;;;9.83;6.13;;;;;;;0.98;88.00;95843.44;5077484;28;20430;-86
2021/01/12 06:28:42;;;;;;;10.83;6.40;;;;;;;0.98;87.56;95848.75;5076580;28;20436;-86
2021/01/12 06:31:10;;;;;;;12.80;6.50;;;;;;;1.03;87.80;95838.09;5077021;28;20433;-85
2021/01/12 06:33:37;;;;;;;15.93;7.13;;;;;;;1.11;87.26;95825.03;5076692;28;20934;-85
2021/01/12 06:36:06;;;;;;;12.67;6.80;;;;;;;1.13;87.05;95827.22;5076531;28;20458;-85
2021/01/12 06:38:36;;;;;;;11.90;6.33;;;;;;;1.10;87.75;95833.50;5076967;28;20979;-85
2021/01/12 06:41:06;;;;;;;10.57;6.20;;;;;;;1.15;86.59;95825.50;5076581;28;20473;-85
2021/01/12 06:43:32;;;;;;;10.57;5.83;;;;;;;1.10;87.08;95812.25;5076430;28;20508;-85
2021/01/12 06:46:00;;;;;;;11.80;6.10;;;;;;;1.04;87.35;95812.97;5077064;28;20465;-86
2021/01/12 06:48:28;;;;;;;9.50;5.30;;;;;;;1.08;87.37;95808.16;5077081;28;20916;-85
2021/01/12 06:50:55;;;;;;;12.50;6.90;;;;;;;1.16;87.36;95802.31;5094070;28;20424;-85
2021/01/12 06:53:23;;;;;;;10.83;5.50;;;;;;;1.14;87.21;95802.06;5099058;28;20449;-85
2021/01/12 06:55:50;;;;;;;8.90;5.40;;;;;;;1.11;87.72;95801.13;5098835;28;20476;-85
2021/01/12 06:58:16;;;;;;;10.27;5.83;;;;;;;1.15;87.22;95793.63;5098977;28;20536;-86
2021/01/12 07:00:59;;;;;;;9.10;4.53;;;;;;;1.21;87.49;95788.28;5081251;28;20442;-86
2021/01/12 07:03:30;;;;;;;9.60;6.00;;;;;;;1.24;87.15;95785.38;5076415;28;20461;-86
2021/01/12 07:06:00;;;;;;;11.33;5.77;;;;;;;1.21;87.29;95785.63;5075755;28;20882;-85
2021/01/12 07:08:28;;;;;;;8.43;5.70;;;;;;;1.25;87.09;95786.81;5076604;28;20460;-85
2021/01/12 07:10:55;;;;;;;10.30;6.10;;;;;;;1.32;87.45;95780.97;5076306;28;20945;-85
2021/01/12 07:13:21;;;;;;;10.53;5.47;;;;;;;1.37;87.08;95776.84;5077473;28;20465;-90
2021/01/12 07:15:49;;;;;;;11.30;5.30;;;;;;;1.34;87.37;95775.16;5078975;28;21014;-89
2021/01/12 07:18:21;;;;;;;9.10;5.70;;;;;;;1.36;86.86;95770.06;5078205;28;20465;-92
2021/01/12 07:20:49;;;;;;;11.27;6.20;;;;;;;1.36;87.27;95757.50;5079316;28;20414;-92
2021/01/12 07:23:17;;;;;;;13.60;6.13;;;;;;;1.34;87.47;95753.91;5079158;28;20579;-92
2021/01/12 07:25:45;;;;;;;11.40;6.20;;;;;;;1.35;87.94;95755.31;5082624;28;20528;-92
2021/01/12 07:28:17;;;;;;;9.97;5.33;;;;;;;1.35;87.92;95750.00;5086161;28;20440;-91
2021/01/12 07:30:45;;;;;;;10.97;6.20;;;;;;;1.38;88.28;95736.47;5060632;28;20557;-90
2021/01/12 07:33:20;;;;;;;10.23;6.00;;;;;;;1.51;87.91;95739.28;5059183;28;20442;-91
2021/01/12 07:35:49;;;;;;;10.00;5.37;;;;;;;1.40;88.74;95734.06;5071309;28;20479;-91
2021/01/12 07:38:17;;;;;;;10.67;6.47;;;;;;;1.42;88.81;95731.63;5060850;28;20446;-92
2021/01/12 07:40:43;;;;;;;8.03;5.23;;;;;;;1.45;88.40;95735.94;5058646;28;20465;-93
2021/01/12 07:43:14;;;;;;;8.57;6.27;;;;;;;1.51;88.45;95726.00;5058364;28;20990;-90
2021/01/12 07:45:41;;;;;;;10.20;4.70;;;;;;;1.53;89.22;95723.56;5059339;28;20511;-90
2021/01/12 07:48:08;;;;;;;13.60;5.97;;;;;;;1.53;89.14;95723.56;5061323;28;20437;-91
2021/01/12 07:50:36;;;;;;;10.17;4.97;;;;;;;1.49;89.19;95719.72;5059244;28;20501;-92
2021/01/12 07:53:06;;;;;;;7.50;5.57;;;;;;;1.50;89.21;95718.53;5066551;28;20545;-93
2021/01/12 07:55:32;;;;;;;13.20;5.23;;;;;;;1.53;89.85;95725.50;5065092;28;20450;-91
2021/01/12 07:58:00;;;;;;;15.77;5.87;;;;;;;1.56;89.62;95725.25;5060326;28;20447;-82
2021/01/12 08:00:28;;;;;;;6.87;4.23;;;;;;;1.59;89.17;95724.25;5059417;28;20442;-91
2021/01/12 08:02:56;;;;;;;7.80;4.90;;;;;;;1.66;89.35;95712.31;5057326;28;20474;-89
2021/01/12 08:05:24;;;;;;;9.07;5.30;;;;;;;1.63;89.52;95708.00;5059592;28;20502;-92
2021/01/12 08:07:51;;;;;;;9.33;5.33;;;;;;;1.68;89.76;95715.22;5059459;28;20478;-90
2021/01/12 08:10:21;;;;;;;8.50;5.53;;;;;;;1.71;89.64;95716.16;5057835;28;20510;-90
2021/01/12 08:12:48;;;;;;;8.50;5.30;;;;;;;1.70;89.35;95710.13;5058750;28;20492;-90
2021/01/12 08:15:16;;;;;;;8.23;5.27;;;;;;;1.72;89.99;95710.38;5056892;28;20461;-90
2021/01/12 08:17:47;;;;;;;12.77;6.03;;;;;;;1.80;89.32;95715.84;5058200;28;20485;-91
2021/01/12 08:20:15;;;;;;;8.43;4.97;;;;;;;1.79;89.55;95712.47;5059965;28;20442;-91
2021/01/12 08:22:42;;;;;;;7.33;4.77;;;;;;;1.78;89.42;95711.03;5060964;28;20525;-91
2021/01/12 08:25:08;;;;;;;9.27;5.63;;;;;;;1.74;90.38;95702.59;5059612;28;20560;-90
2021/01/12 08:27:36;;;;;;;8.40;4.77;;;;;;;1.82;90.51;95703.50;5058095;28;20472;-88
2021/01/12 08:30:07;;;;;;;7.60;4.93;;;;;;;1.80;90.63;95699.88;5056789;28;20458;-88
2021/01/12 08:32:37;;;;;;;8.87;5.67;;;;;;;1.76;91.11;95705.47;5057037;28;20466;-88
2021/01/12 08:35:08;;;;;;;6.70;4.80;;;;;;;1.77;91.39;95696.28;5058164;28;20466;-90
2021/01/12 08:37:38;;;;;;;7.23;4.90;;;;;;;1.79;91.57;95701.81;5061015;28;20423;-89
2021/01/12 08:40:09;;;;;;;7.40;5.20;;;;;;;1.81;91.78;95701.34;5068113;28;20439;-90
2021/01/12 08:42:39;;;;;;;7.00;5.27;;;;;;;1.87;92.28;95710.00;5077092;28;20470;-91
2021/01/12 08:45:16;;;;;;;10.10;5.63;;;;;;;1.86;92.78;95705.88;5076390;28;20454;-90
2021/01/12 08:47:45;;;;;;;11.77;5.93;;;;;;;1.89;92.42;95702.22;5074514;28;20481;-86
2021/01/12 08:50:13;;;;;;;14.30;5.30;;;;;;;1.99;92.91;95690.75;5070338;28;20423;-87
2021/01/12 08:52:41;;;;;;;9.73;5.20;;;;;;;1.96;92.75;95694.41;5071322;28;20455;-89
2021/01/12 08:55:17;;;;;;;8.87;4.50;;;;;;;1.98;93.68;95694.63;5067146;28;20459;-92
2021/01/12 08:57:54;;;;;;;6.70;4.27;;;;;;;2.01;93.26;95688.31;5076682;28;20520;-90
2021/01/12 09:00:27;;;;;;;7.37;4.30;;;;;;;2.00;93.36;95684.22;5080517;28;20464;-88
2021/01/12 09:02:54;;;;;;;9.03;4.40;;;;;;;2.01;93.98;95685.66;5078115;28;20507;-90
2021/01/12 09:05:21;;;;;;;6.93;4.60;;;;;;;2.05;93.88;95688.03;5080614;28;20454;-89
2021/01/12 09:07:47;;;;;;;6.77;4.77;;;;;;;2.13;94.19;95684.31;5081068;28;20565;-90
2021/01/12 09:10:14;;;;;;;7.77;4.00;;;;;;;2.08;94.12;95676.41;5080012;28;20453;-90
2021/01/12 09:12:42;;;;;;;6.17;4.30;;;;;;;2.10;94.34;95673.94;5081036;28;20433;-89
2021/01/12 09:15:11;;;;;;;7.97;4.50;;;;;;;2.12;94.46;95677.56;5085435;28;20465;-88
2021/01/12 09:17:37;;;;;;;5.90;3.70;;;;;;;2.18;94.51;95669.53;5084866;28;20441;-88
2021/01/12 09:20:04;;;;;;;7.37;3.97;;;;;;;2.17;94.39;95674.13;5084629;28;20449;-90
2021/01/12 09:22:31;;;;;;;8.20;3.73;;;;;;;2.20;95.07;95684.97;5085341;28;20918;-90
2021/01/12 09:24:58;;;;;;;8.40;3.83;;;;;;;2.22;94.97;95664.66;5084141;28;20765;-90
2021/01/12 09:27:28;;;;;;;4.93;3.40;;;;;;;2.23;94.86;95681.31;5082419;28;20529;-89
2021/01/12 09:29:55;;;;;;;5.60;3.50;;;;;;;2.22;95.69;95669.25;5080548;28;20464;-90
2021/01/12 09:32:29;;;;;;;8.23;4.40;;;;;;;2.22;95.43;95669.97;5080439;28;20453;-90
2021/01/12 09:34:57;;;;;;;5.87;4.07;;;;;;;2.25;95.65;95673.56;5084394;28;20468;-90
2021/01/12 09:37:23;;;;;;;4.67;3.40;;;;;;;2.36;95.25;95673.44;5086020;28;20444;-90
2021/01/12 09:39:54;;;;;;;6.23;3.53;;;;;;;2.34;94.94;95654.59;5080880;28;20475;-88
2021/01/12 09:42:25;;;;;;;4.97;3.63;;;;;;;2.34;95.27;95665.97;5079836;28;20476;-89
2021/01/12 09:44:52;;;;;;;13.50;3.60;;;;;;;2.30;95.85;95654.88;5078572;28;20484;-85
2021/01/12 09:47:18;;;;;;;5.90;4.13;;;;;;;2.27;95.94;95657.81;5079487;28;20436;-90
2021/01/12 09:49:46;;;;;;;6.80;3.90;;;;;;;2.28;96.04;95657.31;5083102;28;20440;-91
2021/01/12 09:52:13;;;;;;;6.30;3.50;;;;;;;2.29;96.42;95655.38;5080008;28;20820;-88
2021/01/12 09:54:41;;;;;;;5.20;3.37;;;;;;;2.32;97.11;95657.03;5098960;28;20449;-87
2021/01/12 09:57:24;;;;;;;6.80;3.33;;;;;;;2.32;96.68;95654.38;5100135;28;20457;-87
2021/01/12 09:59:50;;;;;;;7.17;3.57;;;;;;;2.31;97.51;95643.00;5099941;28;20430;-86
2021/01/12 10:02:16;;;;;;;7.60;3.93;;;;;;;2.30;97.87;95652.22;5085149;28;20485;-90
2021/01/12 10:04:45;;;;;;;3.80;2.77;;;;;;;2.32;98.00;95644.44;5079644;28;20970;-85
2021/01/12 10:07:12;;;;;;;5.87;3.87;;;;;;;2.36;98.61;95644.16;5092675;28;20450;-88
2021/01/12 10:09:38;;;;;;;5.30;3.43;;;;;;;2.36;98.42;95642.22;5098910;28;20470;-90
2021/01/12 10:12:06;;;;;;;4.20;2.80;;;;;;;2.32;98.64;95643.72;5099768;28;21027;-90
2021/01/12 10:14:32;;;;;;;3.83;2.70;;;;;;;2.25;99.29;95638.97;5098824;28;20469;-89
2021/01/12 10:16:59;;;;;;;4.23;2.87;;;;;;;2.22;100.00;95635.38;5097485;28;20442;-89
2021/01/12 10:19:25;;;;;;;5.03;3.20;;;;;;;2.23;100.00;95628.81;5089848;28;20530;-91
2021/01/12 10:21:52;;;;;;;8.40;3.43;;;;;;;2.19;100.00;95630.34;5087552;28;20432;-91
2021/01/12 10:24:22;;;;;;;2.67;2.17;;;;;;;2.22;100.00;95626.66;5087326;28;20540;-87
2021/01/12 10:26:53;;;;;;;7.10;3.00;;;;;;;2.30;100.00;95630.91;5087207;28;20486;-88
2021/01/12 10:29:19;;;;;;;4.47;2.50;;;;;;;2.22;100.00;95616.03;5083119;28;20422;-90
2021/01/12 10:31:46;;;;;;;4.47;2.63;;;;;;;2.15;100.00;95606.66;5081333;28;20433;-90
2021/01/12 10:34:12;;;;;;;3.03;2.10;;;;;;;2.15;100.00;95604.72;5080687;28;20998;-91
2021/01/12 10:36:40;;;;;;;7.73;2.33;;;;;;;2.19;100.00;95606.38;5079458;28;20465;-89
2021/01/12 10:39:06;;;;;;;5.50;2.87;;;;;;;2.22;100.00;95610.72;5078424;28;20449;-89
2021/01/12 10:41:38;;;;;;;5.63;2.30;;;;;;;2.26;100.00;95608.47;5080126;28;20410;-91
2021/01/12 10:44:05;;;;;;;3.77;2.03;;;;;;;2.23;100.00;95606.81;5079666;28;20492;-90
2021/01/12 10:46:32;;;;;;;4.83;3.00;;;;;;;2.21;100.00;95611.91;5079783;28;20424;-90
2021/01/12 10:48:59;;;;;;;10.60;3.07;;;;;;;2.28;100.00;95600.72;5079026;28;20537;-89
2021/01/12 10:51:25;;;;;;;4.10;1.67;;;;;;;2.30;100.00;95593.66;5081622;28;20501;-87
2021/01/12 10:53:52;;;;;;;3.40;2.00;;;;;;;2.25;100.00;95583.09;5083889;28;20814;-89
2021/01/12 10:56:18;;;;;;;6.80;2.93;;;;;;;2.21;100.00;95586.03;5086425;28;20437;-91
2021/01/12 10:58:46;;;;;;;3.40;2.23;;;;;;;2.17;100.00;95580.28;5081943;28;20433;-90
2021/01/12 11:01:14;;;;;;;2.70;2.20;;;;;;;2.28;100.00;95587.41;5079538;28;20800;-86
2021/01/12 11:03:40;;;;;;;2.63;2.30;;;;;;;2.18;100.00;95584.38;5079534;28;20477;-88
2021/01/12 11:06:07;;;;;;;3.73;2.00;;;;;;;2.24;100.00;95577.03;5080915;28;20445;-89
2021/01/12 11:08:33;;;;;;;3.77;2.57;;;;;;;2.15;100.00;95574.75;5088074;28;20432;-88
2021/01/12 11:11:01;;;;;;;2.23;1.60;;;;;;;2.15;100.00;95564.09;5093171;28;20470;-88
2021/01/12 11:13:28;;;;;;;4.47;1.80;;;;;;;2.27;100.00;95559.34;5080028;28;20778;-89
2021/01/12 11:15:58;;;;;;;4.17;2.23;;;;;;;2.24;100.00;95560.34;5079339;28;20514;-89
2021/01/12 11:18:24;;;;;;;1.73;1.50;;;;;;;2.25;100.00;95545.84;5076869;28;20414;-88
2021/01/12 11:20:52;;;;;;;2.63;1.30;;;;;;;2.25;100.00;95551.88;5076578;28;20481;-89
2021/01/12 11:23:18;;;;;;;2.57;1.70;;;;;;;2.24;100.00;95542.44;5076333;28;20473;-84
2021/01/12 11:25:46;;;;;;;2.17;1.60;;;;;;;2.23;100.00;95543.66;5075764;28;20469;-85
2021/01/12 11:28:12;;;;;;;3.77;1.70;;;;;;;2.25;100.00;95540.50;5074884;28;20449;-85
2021/01/12 11:30:39;;;;;;;2.17;1.60;;;;;;;2.26;100.00;95541.94;5074981;28;20433;-86
2021/01/12 11:33:10;;;;;;;2.73;1.60;;;;;;;2.29;100.00;95535.63;5078615;28;20437;-86
2021/01/12 11:35:36;;;;;;;1.70;1.03;;;;;;;2.22;100.00;95531.59;5082588;28;20469;-85